METAR AND TAF INFORMATION
METAR FOR ENBR
ADDS - METARS form results

(0421 UTC 28 February 2021)
Data provider http://aviationweather.gov/metar/data/
 
METAR text: ENBR 280420Z 16004KT 9999 BKN012 05/05 Q1036 RMK WIND 1200FT 15009KT
Conditions at: ENBR (BERGEN/FLESLAND , NO) observed 0420 UTC 28 February 2021
Temperature: 5.0°C (41°F)
Dewpoint: 5.0°C (41°F) [RH = 100%]
Pressure (altimeter): 30.59 inches Hg (1036.0 mb)
Winds: from the SSE (160 degrees) at 5 MPH (4 knots; 2.1 m/s)
Visibility: 6 or more miles (10+ km)
Ceiling: 1200 feet AGL
Clouds: broken clouds at 1200 feet AGL
Weather: no significant weather observed at this time

METAR text: ENBR 280350Z 16004KT 7000 BR FEW006 BKN013 05/05 Q1036 RMK WIND 1200FT 15008KT
Conditions at: ENBR (BERGEN/FLESLAND , NO) observed 0350 UTC 28 February 2021
Temperature: 5.0°C (41°F)
Dewpoint: 5.0°C (41°F) [RH = 100%]
Pressure (altimeter): 30.59 inches Hg (1036.0 mb)
Winds: from the SSE (160 degrees) at 5 MPH (4 knots; 2.1 m/s)
Visibility: 4 miles ( 7 km)
Ceiling: 1300 feet AGL
Clouds: few clouds at 600 feet AGL
broken clouds at 1300 feet AGL
Weather: BR  (mist)

Forecast for: AMD
Text: TAF AMD ENBR 2802/2824 18005KT 8000 SCT008 BKN025
Forecast period: 0200 UTC 28 February 2021 to 0000 UTC 01 March 2021
Forecast type: FROM: standard forecast or significant change
Winds: from the S (180 degrees) at 6 MPH (5 knots; 2.6 m/s)
Visibility: 5 miles (8 km)
Ceiling: 2500 feet AGL
Clouds: scattered clouds at 800 feet AGL
broken clouds at 2500 feet AGL
Weather: no significant weather forecast for this period
Text: TEMPO 2802/2824 2500 -DZ BR BKN004
Forecast period: 0200 UTC 28 February 2021 to 0000 UTC 01 March 2021
Forecast type: TEMPORARY: The following changes expected for less than half the time period
Visibility: 1.55 miles (2.49 km)
Ceiling: 400 feet AGL
Clouds: broken clouds at 400 feet AGL
Weather: -DZ BR  (light drizzle, mist)

 AIRPORT MAP

 RUNWAY INFORMATION
Runway 17 Runway length 9810 ft Runway width 148 ft
Runway elevation 165 ft Runway displaced threshold 886 ft Runway heading 171
Runway 35 Runway length 9810 ft Runway width 148 ft
Runway elevation 146 ft Runway displaced threshold 889 ft Runway heading 351

 AIRPORT FREQUENCIES
Type APP Name RADAR Frequency 121 MHZ
Type ARR Name ARR Frequency 125 MHZ
Type ATIS Name ATIS Frequency 125.25 MHZ
Type DIR Name DIRECTOR Frequency 118.85 MHZ
Type GND Name GND Frequency 121.9 MHZ
Type TWR Name TWR Frequency 119.1 MHZ

 AIRPORT NEAR NAVIGATION AIDS
Type NDB Name Askoy Frequency 360 KHZ
Type NDB Name Bratta Frequency 336 KHZ
Type TACAN Name Flesland Frequency 114500 KHZ
Type VOR-DME Name Flesland Frequency 115550 KHZ
Type VOR-DME Name Vollo Frequency 114850 KHZ



Powered by Virtual Airlines Manager [v2.6.2]